Time;durP1;ratioP1;P1;durP2;ratioP2;P2;SDS_P1;SDS_P2;PMS_P1;PMS_P2;Temp;Humidity;BMP_temperature;BMP_pressure;BME280_temperature;BME280_humidity;BME280_pressure;Samples;Min_cycle;Max_cycle;Signal;HPM_P1;HPM_P2
2022/01/31 00:00:10;;;;;;;7.65;4.10;;;103.30;2227.20;;;;;;5050179;28;20025;-71
2022/01/31 00:02:35;;;;;;;9.95;4.50;;;103.30;2227.20;;;;;;5051007;28;20074;-71
2022/01/31 00:05:03;;;;;;;9.85;4.65;;;103.30;2227.20;;;;;;5051502;28;20432;-71
2022/01/31 00:07:28;;;;;;;8.63;4.30;;;103.30;2227.20;;;;;;5050846;28;20405;-71
2022/01/31 00:09:54;;;;;;;17.85;4.80;;;128.00;2252.80;;;;;;5051676;28;20027;-71
2022/01/31 00:12:23;;;;;;;17.67;4.85;;;128.00;2252.80;;;;;;5046439;28;20090;-71
2022/01/31 00:14:50;;;;;;;14.20;6.53;;;128.00;2252.80;;;;;;5050279;28;20091;-71
2022/01/31 00:17:17;;;;;;;11.15;4.72;;;128.00;2252.80;;;;;;5046955;28;20049;-72
2022/01/31 00:19:44;;;;;;;10.00;4.00;;;128.00;2252.80;;;;;;5049869;28;20052;-71
2022/01/31 00:22:13;;;;;;;14.18;4.40;;;128.00;2252.80;;;;;;5050841;28;20028;-72
2022/01/31 00:24:39;;;;;;;10.32;5.07;;;128.00;2252.80;;;;;;5049026;28;20032;-72
2022/01/31 00:27:08;;;;;;;8.77;4.25;;;128.00;2252.80;;;;;;5049697;28;20105;-71
2022/01/31 00:29:34;;;;;;;13.77;5.57;;;128.00;2252.80;;;;;;5048536;28;20047;-71
2022/01/31 00:32:00;;;;;;;10.88;5.28;;;128.00;2252.80;;;;;;5050236;28;20017;-71
2022/01/31 00:34:26;;;;;;;11.02;4.90;;;128.00;2252.80;;;;;;5048648;28;20024;-71
2022/01/31 00:36:52;;;;;;;12.15;4.72;;;128.00;2252.80;;;;;;5049049;28;20093;-71
2022/01/31 00:39:18;;;;;;;10.60;4.38;;;128.00;2252.80;;;;;;5047395;28;20119;-72
2022/01/31 00:41:44;;;;;;;8.70;4.28;;;128.00;2252.80;;;;;;5049431;28;20044;-72
2022/01/31 00:44:26;;;;;;;13.55;5.50;;;128.00;2252.80;;;;;;5050139;28;20029;-70
2022/01/31 00:46:59;;;;;;;12.45;4.03;;;128.00;2252.80;;;;;;5048094;28;20404;-71
2022/01/31 00:51:59;;;;;;;10.77;4.20;;;103.30;2227.20;;;;;;5049638;28;20013;-71
2022/01/31 00:54:24;;;;;;;17.83;4.28;;;103.30;2227.20;;;;;;5049039;28;20013;-71
2022/01/31 00:56:51;;;;;;;5.78;3.45;;;103.30;2227.20;;;;;;5049997;28;20545;-71
2022/01/31 00:59:17;;;;;;;10.48;3.53;;;103.20;2227.20;;;;;;5042390;28;20029;-71
2022/01/31 01:01:44;;;;;;;7.45;3.25;;;103.20;2227.20;;;;;;5050104;28;20028;-71
2022/01/31 01:04:10;;;;;;;8.45;3.78;;;103.20;2227.20;;;;;;5047221;28;20031;-71
2022/01/31 01:06:36;;;;;;;11.15;4.10;;;103.10;2227.20;;;;;;5047168;28;20029;-71
2022/01/31 01:09:01;;;;;;;20.38;4.30;;;103.10;2227.20;;;;;;5049664;28;20048;-71
2022/01/31 01:11:27;;;;;;;13.25;4.45;;;103.10;2227.20;;;;;;5080201;28;20558;-71
2022/01/31 01:13:53;;;;;;;9.70;4.32;;;103.10;2227.20;;;;;;5049737;28;20017;-71
2022/01/31 01:16:19;;;;;;;11.23;3.40;;;103.10;2227.20;;;;;;5049797;28;20041;-70
2022/01/31 01:18:44;;;;;;;8.18;3.47;;;103.00;2227.20;;;;;;5049398;28;20392;-71
2022/01/31 01:21:10;;;;;;;13.23;4.30;;;103.00;2227.20;;;;;;5048548;28;20048;-71
2022/01/31 01:23:36;;;;;;;8.57;4.25;;;102.90;2227.20;;;;;;5050055;28;20032;-71
2022/01/31 01:26:01;;;;;;;11.80;4.22;;;102.90;2227.20;;;;;;5048337;28;20094;-71
2022/01/31 01:28:27;;;;;;;8.10;3.65;;;102.90;2227.20;;;;;;5050067;28;20811;-71
2022/01/31 01:30:56;;;;;;;9.95;4.63;;;102.90;2227.20;;;;;;5048836;28;20029;-71
2022/01/31 01:33:23;;;;;;;12.38;3.92;;;102.90;2227.20;;;;;;5050732;28;20031;-71
2022/01/31 01:35:51;;;;;;;14.20;5.60;;;102.80;2227.20;;;;;;5050080;28;20059;-71
2022/01/31 01:38:19;;;;;;;8.00;3.22;;;102.80;2227.20;;;;;;5050234;28;20021;-71
2022/01/31 01:40:46;;;;;;;11.13;4.13;;;102.70;2227.20;;;;;;5050230;28;20032;-71
2022/01/31 01:43:14;;;;;;;10.30;3.58;;;102.70;2227.20;;;;;;5049905;28;20024;-71
2022/01/31 01:45:41;;;;;;;9.50;5.05;;;102.70;2227.20;;;;;;5049495;28;20037;-71
2022/01/31 01:48:08;;;;;;;12.95;3.85;;;102.70;2227.20;;;;;;5047767;28;20393;-71
2022/01/31 01:50:35;;;;;;;9.98;3.50;;;102.60;2227.20;;;;;;5050276;28;20465;-71
2022/01/31 01:53:02;;;;;;;9.68;3.55;;;102.60;2227.20;;;;;;5049866;28;20052;-71
2022/01/31 01:55:28;;;;;;;11.90;4.78;;;102.60;2227.20;;;;;;5051142;28;20029;-71
2022/01/31 01:57:56;;;;;;;13.27;4.43;;;102.60;2227.20;;;;;;5050927;28;20104;-71
2022/01/31 02:00:26;;;;;;;9.35;3.67;;;102.60;2227.20;;;;;;5050351;28;20497;-71
2022/01/31 02:02:53;;;;;;;9.23;2.90;;;102.50;2227.20;;;;;;5048502;28;20041;-71
2022/01/31 02:05:19;;;;;;;9.05;3.40;;;102.50;2227.20;;;;;;5049243;28;20035;-71
2022/01/31 02:07:45;;;;;;;14.90;6.05;;;102.50;2227.20;;;;;;5050850;28;20029;-70
2022/01/31 02:10:12;;;;;;;15.43;4.80;;;102.50;2227.20;;;;;;5050110;28;20038;-70
2022/01/31 02:12:38;;;;;;;8.60;4.22;;;102.50;2227.20;;;;;;5050754;28;20033;-71
2022/01/31 02:15:05;;;;;;;21.08;3.85;;;102.50;2227.20;;;;;;5050628;28;20021;-71
2022/01/31 02:17:31;;;;;;;11.15;4.07;;;102.50;2227.20;;;;;;5050706;28;20513;-71
2022/01/31 02:19:57;;;;;;;11.98;4.20;;;102.50;2227.20;;;;;;5050631;28;20033;-70
2022/01/31 02:22:22;;;;;;;7.80;4.38;;;102.40;2227.20;;;;;;5051185;28;20373;-70
2022/01/31 02:24:48;;;;;;;7.20;3.88;;;102.40;2227.20;;;;;;5053153;28;20059;-71
2022/01/31 02:27:14;;;;;;;11.70;5.05;;;77.70;2227.20;;;;;;5054990;28;20029;-71
2022/01/31 02:29:40;;;;;;;9.48;4.90;;;77.70;2227.20;;;;;;5053181;28;20706;-70
2022/01/31 02:32:06;;;;;;;10.63;3.70;;;77.70;2227.20;;;;;;5052944;28;20389;-71
2022/01/31 02:34:31;;;;;;;16.98;6.75;;;77.70;2227.20;;;;;;5054959;28;20108;-71
2022/01/31 02:36:57;;;;;;;10.55;4.57;;;77.60;2227.20;;;;;;5054572;28;20104;-71
2022/01/31 02:39:23;;;;;;;8.50;3.58;;;77.50;2227.20;;;;;;5053561;28;20461;-71
2022/01/31 02:41:49;;;;;;;10.85;3.47;;;77.50;2227.20;;;;;;5054660;28;20033;-71
2022/01/31 02:44:15;;;;;;;14.20;4.45;;;77.50;2227.20;;;;;;5054862;28;20025;-71
2022/01/31 02:46:48;;;;;;;8.57;4.25;;;77.50;2227.20;;;;;;5054060;28;20108;-71
2022/01/31 02:49:17;;;;;;;10.88;3.55;;;77.40;2227.20;;;;;;5053584;28;20028;-71
2022/01/31 02:51:48;;;;;;;14.07;4.00;;;77.40;2227.20;;;;;;5053961;28;20136;-71
2022/01/31 02:54:14;;;;;;;9.85;3.17;;;77.50;2227.20;;;;;;5053468;28;20086;-71
2022/01/31 02:56:40;;;;;;;14.52;3.83;;;77.60;2227.20;;;;;;5053908;28;20512;-71
2022/01/31 02:59:07;;;;;;;12.18;4.05;;;77.60;2227.20;;;;;;5052272;28;20045;-71
2022/01/31 03:01:39;;;;;;;13.02;4.35;;;77.60;2227.20;;;;;;5052358;28;20061;-70
2022/01/31 03:04:07;;;;;;;12.38;4.18;;;77.60;2227.20;;;;;;5053281;28;20025;-71
2022/01/31 03:06:33;;;;;;;18.10;3.58;;;77.70;2227.20;;;;;;5052369;28;20036;-71
2022/01/31 03:08:59;;;;;;;14.10;3.90;;;102.40;2227.20;;;;;;5052943;28;20338;-71
2022/01/31 03:11:25;;;;;;;22.10;4.70;;;102.40;2227.20;;;;;;5053054;28;20469;-71
2022/01/31 03:13:50;;;;;;;12.23;3.90;;;102.40;2227.20;;;;;;5053357;28;20025;-71
2022/01/31 03:16:16;;;;;;;18.73;5.03;;;102.40;2227.20;;;;;;5052597;28;20466;-71
2022/01/31 03:18:42;;;;;;;14.48;3.63;;;102.40;2227.20;;;;;;5052749;28;20469;-71
2022/01/31 03:21:07;;;;;;;12.27;3.28;;;102.40;2227.20;;;;;;5051244;28;20140;-71
2022/01/31 03:23:34;;;;;;;8.55;4.22;;;102.40;2227.20;;;;;;5052743;28;20013;-71
2022/01/31 03:26:00;;;;;;;12.77;3.75;;;102.40;2227.20;;;;;;5051907;28;20021;-71
2022/01/31 03:28:25;;;;;;;11.45;4.20;;;102.40;2227.20;;;;;;5052475;28;20509;-71
2022/01/31 03:30:51;;;;;;;22.08;4.93;;;102.40;2227.20;;;;;;5051924;28;20446;-71
2022/01/31 03:33:18;;;;;;;8.07;3.83;;;102.40;2227.20;;;;;;5051180;28;20029;-71
2022/01/31 03:35:43;;;;;;;20.45;4.60;;;77.70;2227.20;;;;;;5051901;28;20031;-71
2022/01/31 03:38:09;;;;;;;14.02;3.60;;;102.40;2227.20;;;;;;5051774;28;20037;-71
2022/01/31 03:40:35;;;;;;;16.23;4.00;;;102.40;2227.20;;;;;;5053279;28;20048;-71
2022/01/31 03:43:01;;;;;;;12.07;3.70;;;102.50;2227.20;;;;;;5053169;28;20028;-71
2022/01/31 03:45:32;;;;;;;8.85;3.63;;;102.50;2227.20;;;;;;5052141;28;20029;-71
2022/01/31 03:48:00;;;;;;;15.35;5.00;;;102.50;2227.20;;;;;;5046553;28;20063;-71
2022/01/31 03:50:26;;;;;;;12.32;5.63;;;102.50;2227.20;;;;;;5038617;28;20465;-72
2022/01/31 03:52:53;;;;;;;10.48;4.53;;;102.50;2227.20;;;;;;5051461;28;20496;-72
2022/01/31 03:55:20;;;;;;;16.23;5.05;;;102.60;2227.20;;;;;;5052187;28;20017;-72
2022/01/31 03:57:46;;;;;;;12.38;4.43;;;102.60;2227.20;;;;;;5053275;28;20017;-72
2022/01/31 04:00:14;;;;;;;11.70;4.50;;;102.60;2227.20;;;;;;5044802;28;20037;-73
2022/01/31 04:02:41;;;;;;;16.52;4.00;;;102.60;2227.20;;;;;;5047187;28;20056;-72
2022/01/31 04:05:07;;;;;;;20.65;4.57;;;102.60;2227.20;;;;;;5038601;28;20113;-72
2022/01/31 04:07:33;;;;;;;12.07;4.30;;;102.60;2227.20;;;;;;5052324;28;20035;-71
2022/01/31 04:09:59;;;;;;;14.68;4.10;;;102.60;2227.20;;;;;;5051668;28;20104;-71
2022/01/31 04:12:25;;;;;;;18.58;4.22;;;102.60;2227.20;;;;;;5052646;28;20051;-73
2022/01/31 04:14:51;;;;;;;19.10;4.40;;;102.60;2227.20;;;;;;5051706;28;20021;-72
2022/01/31 04:17:19;;;;;;;11.43;4.38;;;102.60;2227.20;;;;;;5050670;28;20076;-72
2022/01/31 04:19:47;;;;;;;15.40;4.50;;;102.60;2227.20;;;;;;5051697;28;20025;-71
2022/01/31 04:22:16;;;;;;;13.73;5.15;;;102.60;2227.20;;;;;;5052046;28;20032;-72
2022/01/31 04:24:42;;;;;;;18.80;7.07;;;102.50;2227.20;;;;;;5052079;28;20092;-72
2022/01/31 04:27:15;;;;;;;20.67;4.85;;;102.50;2227.20;;;;;;5048862;28;20025;-72
2022/01/31 04:29:43;;;;;;;14.68;4.82;;;102.50;2227.20;;;;;;5050741;28;20017;-73
2022/01/31 04:32:09;;;;;;;20.52;5.32;;;102.40;2227.20;;;;;;5050205;28;20112;-72
2022/01/31 04:34:34;;;;;;;20.05;5.63;;;77.70;2227.20;;;;;;5051886;28;20088;-72
2022/01/31 04:37:01;;;;;;;17.45;6.57;;;77.70;2227.20;;;;;;5051471;28;20420;-72
2022/01/31 04:39:29;;;;;;;20.48;6.82;;;77.50;2227.20;;;;;;5050147;28;20028;-72
2022/01/31 04:41:55;;;;;;;23.40;5.25;;;77.40;2227.20;;;;;;5043567;28;20037;-72
2022/01/31 04:44:22;;;;;;;9.88;4.93;;;77.30;2227.20;;;;;;5051524;28;20036;-73
2022/01/31 04:46:51;;;;;;;10.52;5.68;;;77.30;2227.20;;;;;;5050783;28;20064;-72
2022/01/31 04:49:18;;;;;;;27.27;5.55;;;77.30;2227.20;;;;;;5051986;28;20416;-72
2022/01/31 04:51:44;;;;;;;15.00;4.72;;;77.20;2227.20;;;;;;5051564;28;20025;-72
2022/01/31 04:54:10;;;;;;;15.20;5.50;;;77.20;2227.20;;;;;;5051672;28;20048;-72
2022/01/31 04:56:38;;;;;;;20.52;5.03;;;77.20;2227.20;;;;;;5051627;28;20055;-72
2022/01/31 04:59:04;;;;;;;21.27;6.88;;;77.20;2227.20;;;;;;5051694;28;20021;-73
2022/01/31 05:01:30;;;;;;;17.92;6.10;;;77.20;2227.20;;;;;;5050694;28;20024;-72
2022/01/31 05:03:56;;;;;;;19.77;7.32;;;77.10;2227.20;;;;;;5051565;28;20025;-72
2022/01/31 05:06:28;;;;;;;16.73;6.07;;;77.00;2227.20;;;;;;5050305;28;20171;-72
2022/01/31 05:08:54;;;;;;;20.38;7.90;;;77.00;2227.20;;;;;;5050736;28;20397;-73
2022/01/31 05:11:20;;;;;;;22.65;6.95;;;76.90;2227.20;;;;;;5050417;28;20037;-72
2022/01/31 05:13:46;;;;;;;20.00;6.72;;;76.80;2227.20;;;;;;5050232;28;20024;-71
2022/01/31 05:16:12;;;;;;;29.17;9.48;;;76.90;2227.20;;;;;;5050623;28;20033;-72
2022/01/31 05:18:38;;;;;;;18.67;8.07;;;76.80;2227.20;;;;;;5050628;28;20032;-71
2022/01/31 05:21:05;;;;;;;23.58;7.95;;;52.10;2227.20;;;;;;5049172;28;20021;-71
2022/01/31 05:23:32;;;;;;;18.10;6.47;;;52.10;2227.20;;;;;;5043242;28;20398;-72
2022/01/31 05:25:58;;;;;;;18.60;7.78;;;52.00;2227.20;;;;;;5049690;28;20059;-72
2022/01/31 05:28:24;;;;;;;21.20;5.47;;;52.00;2227.20;;;;;;5048499;28;20075;-71
2022/01/31 05:30:49;;;;;;;15.70;5.43;;;52.00;2227.20;;;;;;5050579;28;20029;-71
2022/01/31 05:33:15;;;;;;;16.45;6.95;;;51.90;2227.20;;;;;;5051113;28;20021;-72
2022/01/31 05:35:41;;;;;;;22.27;8.90;;;51.90;2227.20;;;;;;5051773;28;20432;-71
2022/01/31 05:38:07;;;;;;;37.85;16.20;;;51.90;2227.20;;;;;;5050014;28;20378;-71
2022/01/31 05:40:33;;;;;;;35.08;14.80;;;51.90;2227.20;;;;;;5051669;28;20029;-72
2022/01/31 05:42:59;;;;;;;29.48;14.55;;;51.70;2227.20;;;;;;5051292;28;20076;-72
2022/01/31 05:45:24;;;;;;;29.20;15.18;;;51.70;2227.20;;;;;;5051271;28;20075;-73
2022/01/31 05:47:50;;;;;;;31.50;13.63;;;51.60;2227.20;;;;;;5050669;28;20025;-72
2022/01/31 05:50:16;;;;;;;26.45;10.18;;;51.50;2227.20;;;;;;5051007;28;20021;-72
2022/01/31 05:52:43;;;;;;;35.42;12.52;;;51.40;2227.20;;;;;;5050747;28;20025;-72
2022/01/31 05:55:09;;;;;;;43.60;17.65;;;51.40;2227.20;;;;;;5050960;28;20485;-72
2022/01/31 05:57:35;;;;;;;30.75;13.50;;;51.30;2227.20;;;;;;5050771;28;20070;-71
2022/01/31 06:00:03;;;;;;;42.17;17.90;;;51.30;2227.20;;;;;;5050781;28;20025;-71
2022/01/31 06:02:28;;;;;;;37.95;16.90;;;51.40;2227.20;;;;;;5051092;28;20253;-72
2022/01/31 06:04:54;;;;;;;28.35;14.25;;;51.30;2227.20;;;;;;5042738;28;20053;-72
2022/01/31 06:07:20;;;;;;;22.52;9.15;;;51.40;2227.20;;;;;;5031120;28;20026;-72
2022/01/31 06:09:45;;;;;;;22.45;9.55;;;51.50;2227.20;;;;;;5042197;28;20025;-72
2022/01/31 06:12:12;;;;;;;21.27;9.75;;;51.60;2227.20;;;;;;5050993;28;20026;-72
2022/01/31 06:14:39;;;;;;;31.02;12.80;;;51.70;2227.20;;;;;;5050762;28;20040;-72
2022/01/31 06:17:05;;;;;;;22.67;12.50;;;51.80;2227.20;;;;;;5049443;28;20441;-72
2022/01/31 06:19:32;;;;;;;43.13;20.42;;;51.90;2227.20;;;;;;5046934;28;20048;-72
2022/01/31 06:21:58;;;;;;;50.47;22.63;;;52.00;2227.20;;;;;;5058773;28;20455;-72
2022/01/31 06:24:24;;;;;;;50.53;18.17;;;52.10;2227.20;;;;;;5049666;28;20476;-72
2022/01/31 06:26:50;;;;;;;34.28;16.75;;;76.90;2227.20;;;;;;5048207;28;20033;-73
2022/01/31 06:29:16;;;;;;;30.15;13.93;;;77.00;2227.20;;;;;;5048935;28;20033;-72
2022/01/31 06:31:42;;;;;;;29.88;9.57;;;77.10;2227.20;;;;;;5049563;28;20029;-72
2022/01/31 06:34:07;;;;;;;21.75;7.75;;;77.20;2227.20;;;;;;5050815;28;20025;-72
2022/01/31 06:36:33;;;;;;;19.08;8.10;;;77.40;2227.20;;;;;;5049229;28;20540;-72
2022/01/31 06:38:59;;;;;;;27.35;10.15;;;77.50;2227.20;;;;;;5049360;28;20033;-72
2022/01/31 06:41:26;;;;;;;28.70;11.60;;;77.70;2227.20;;;;;;5050269;28;20086;-72
2022/01/31 06:43:52;;;;;;;25.48;13.23;;;102.40;2227.20;;;;;;5050767;28;20508;-72
2022/01/31 06:46:19;;;;;;;28.15;9.52;;;102.50;2227.20;;;;;;5050330;28;20075;-72
2022/01/31 06:48:45;;;;;;;20.02;8.52;;;102.60;2227.20;;;;;;5050543;28;20080;-72
2022/01/31 06:51:11;;;;;;;18.10;8.45;;;102.70;2227.20;;;;;;5050452;28;20476;-71
2022/01/31 06:53:37;;;;;;;27.90;9.48;;;102.80;2227.20;;;;;;5050390;28;20049;-72
2022/01/31 06:56:03;;;;;;;23.88;9.35;;;102.90;2227.20;;;;;;5050857;28;20025;-72
2022/01/31 06:58:29;;;;;;;24.10;9.65;;;103.00;2227.20;;;;;;5050397;28;20474;-72
2022/01/31 07:00:56;;;;;;;20.17;9.20;;;103.10;2227.20;;;;;;5049545;28;20036;-72
2022/01/31 07:03:22;;;;;;;27.15;10.45;;;103.10;2227.20;;;;;;5048703;28;20028;-71
2022/01/31 07:05:48;;;;;;;27.02;13.07;;;103.10;2227.20;;;;;;5050545;28;20025;-71
2022/01/31 07:08:15;;;;;;;21.98;10.13;;;103.10;2227.20;;;;;;5048834;28;20025;-70
2022/01/31 07:10:42;;;;;;;17.13;9.02;;;103.10;2227.20;;;;;;5051931;28;20025;-71
2022/01/31 07:13:14;;;;;;;15.13;7.57;;;103.10;2227.20;;;;;;5054155;28;20036;-71
2022/01/31 07:15:40;;;;;;;20.85;7.50;;;103.20;2227.20;;;;;;5053939;28;20071;-71
2022/01/31 07:18:06;;;;;;;18.35;8.05;;;103.20;2227.20;;;;;;5052793;28;20421;-71
2022/01/31 07:20:36;;;;;;;25.00;10.07;;;103.30;2227.20;;;;;;5053925;28;20783;-71
2022/01/31 07:23:08;;;;;;;20.42;9.65;;;128.00;2252.80;;;;;;5052806;28;20489;-71
2022/01/31 07:25:35;;;;;;;36.60;16.05;;;128.10;2252.80;;;;;;5053494;28;20100;-72
2022/01/31 07:28:09;;;;;;;31.63;14.05;;;128.10;2252.80;;;;;;5052938;28;20396;-72
2022/01/31 07:30:37;;;;;;;53.60;18.80;;;128.20;2252.80;;;;;;5054087;28;20024;-72
2022/01/31 07:33:03;;;;;;;26.90;14.32;;;128.20;2252.80;;;;;;5053328;28;20025;-71
2022/01/31 07:35:29;;;;;;;28.13;11.93;;;128.20;2252.80;;;;;;5053584;28;20091;-71
2022/01/31 07:37:55;;;;;;;22.98;11.05;;;128.20;2252.80;;;;;;5052964;28;20408;-70
2022/01/31 07:40:20;;;;;;;33.85;11.00;;;128.30;2252.80;;;;;;5052267;28;20075;-71
2022/01/31 07:42:46;;;;;;;26.20;12.05;;;128.40;2252.80;;;;;;5052781;28;20036;-71
2022/01/31 07:45:12;;;;;;;39.25;14.63;;;128.50;2252.80;;;;;;5052079;28;20032;-70
2022/01/31 07:47:39;;;;;;;37.45;17.52;;;128.50;2252.80;;;;;;5046090;28;20119;-71
2022/01/31 07:50:05;;;;;;;37.22;15.88;;;128.50;2252.80;;;;;;5050237;28;20025;-71
2022/01/31 07:52:32;;;;;;;39.20;16.55;;;128.60;2252.80;;;;;;5052866;28;20033;-71
2022/01/31 07:54:58;;;;;;;41.03;16.77;;;128.70;2252.80;;;;;;5049925;28;20155;-70
2022/01/31 07:57:25;;;;;;;31.85;14.23;;;128.70;2252.80;;;;;;5051476;28;20100;-71
2022/01/31 07:59:52;;;;;;;32.20;15.00;;;128.80;2252.80;;;;;;5052435;28;20477;-71
2022/01/31 08:02:17;;;;;;;40.33;18.80;;;128.80;2252.80;;;;;;5052477;28;20029;-71
2022/01/31 08:04:43;;;;;;;43.42;20.23;;;128.90;2252.80;;;;;;5052735;28;20036;-71
2022/01/31 08:07:09;;;;;;;48.70;21.38;;;128.90;2252.80;;;;;;5051949;28;20052;-70
2022/01/31 08:09:35;;;;;;;34.13;19.10;;;153.60;2252.80;;;;;;5051664;28;20048;-71
2022/01/31 08:12:00;;;;;;;49.47;33.05;;;153.70;2252.80;;;;;;5048319;28;20444;-72
2022/01/31 08:14:27;;;;;;;45.35;19.50;;;153.80;2252.80;;;;;;5033011;28;20053;-71
2022/01/31 08:16:52;;;;;;;43.78;29.85;;;153.80;2252.80;;;;;;5049865;28;20041;-71
2022/01/31 08:19:18;;;;;;;41.00;19.80;;;153.90;2252.80;;;;;;5052638;28;20090;-71
2022/01/31 08:24:24;;;;;;;35.78;16.77;;;154.10;2252.80;;;;;;5089009;28;20374;-71
2022/01/31 08:26:50;;;;;;;35.78;13.93;;;154.30;2252.80;;;;;;5078064;28;20025;-70
2022/01/31 08:29:22;;;;;;;27.90;14.35;;;154.40;2252.80;;;;;;5063641;28;20410;-71
2022/01/31 08:31:52;;;;;;;39.00;15.82;;;154.50;2252.80;;;;;;5050074;28;20028;-70
2022/01/31 08:34:24;;;;;;;41.13;16.50;;;179.20;2252.80;;;;;;5075009;28;20017;-70
2022/01/31 08:36:50;;;;;;;31.45;17.60;;;179.20;2252.80;;;;;;5075095;28;20087;-71
2022/01/31 08:39:20;;;;;;;36.60;20.75;;;179.30;2252.80;;;;;;5068093;28;20032;-70
2022/01/31 08:41:51;;;;;;;29.42;14.70;;;179.40;2252.80;;;;;;5088210;28;20408;-70
2022/01/31 08:44:19;;;;;;;21.42;10.73;;;179.70;2252.80;;;;;;5050897;28;20352;-71
2022/01/31 08:46:47;;;;;;;19.17;9.88;;;179.70;2252.80;;;;;;5081740;28;20021;-70
2022/01/31 08:49:14;;;;;;;18.88;11.07;;;179.80;2252.80;;;;;;5069581;28;20020;-70
2022/01/31 08:51:41;;;;;;;24.95;9.77;;;179.80;2252.80;;;;;;5057238;28;20120;-70
2022/01/31 08:54:07;;;;;;;28.63;9.05;;;179.80;2252.80;;;;;;5056124;28;20425;-71
2022/01/31 08:56:44;;;;;;;30.90;9.60;;;179.70;2252.80;;;;;;5067362;28;20135;-70
2022/01/31 08:59:16;;;;;;;19.58;8.77;;;179.80;2252.80;;;;;;5086905;28;20032;-70
2022/01/31 09:01:54;;;;;;;23.73;10.45;;;179.80;2252.80;;;;;;5066597;28;20025;-71
2022/01/31 09:04:35;;;;;;;22.30;8.40;;;180.00;2252.80;;;;;;5048958;28;20039;-70
2022/01/31 09:07:02;;;;;;;21.60;10.18;;;204.80;2252.80;;;;;;5054533;28;20487;-71
2022/01/31 09:09:30;;;;;;;31.17;10.48;;;205.00;2252.80;;;;;;5065588;28;20353;-71
2022/01/31 09:11:57;;;;;;;26.13;11.30;;;205.10;2176.00;;;;;;5044016;28;20387;-71
2022/01/31 09:14:24;;;;;;;31.17;9.18;;;205.50;2150.40;;;;;;5044829;28;20025;-71
2022/01/31 09:16:50;;;;;;;26.50;8.95;;;205.60;2150.40;;;;;;5061819;28;20025;-71
2022/01/31 09:19:16;;;;;;;19.67;10.35;;;230.40;2022.40;;;;;;5060924;28;20391;-71
2022/01/31 09:21:41;;;;;;;30.10;9.77;;;230.60;1945.60;;;;;;5054611;28;20017;-71
2022/01/31 09:24:07;;;;;;;18.40;8.73;;;205.70;1945.60;;;;;;5050812;28;20123;-71
2022/01/31 09:26:34;;;;;;;20.05;9.25;;;205.70;1945.60;;;;;;5066321;28;20052;-71
2022/01/31 09:29:00;;;;;;;24.55;8.65;;;205.60;1971.20;;;;;;5061285;28;20067;-71
2022/01/31 09:31:26;;;;;;;21.80;8.95;;;205.50;2048.00;;;;;;5061470;28;20475;-72
2022/01/31 09:33:52;;;;;;;27.05;11.77;;;205.40;2022.40;;;;;;5037472;28;20164;-71
2022/01/31 09:36:18;;;;;;;34.30;18.33;;;205.50;2048.00;;;;;;5049653;28;20048;-70
2022/01/31 09:38:44;;;;;;;48.42;23.92;;;205.40;2048.00;;;;;;5048538;28;20021;-71
2022/01/31 09:41:14;;;;;;;67.85;29.45;;;205.40;1996.80;;;;;;5036660;28;20029;-70
2022/01/31 09:48:56;;;;;;;46.03;18.80;;;205.60;1971.20;;;;;;5050988;28;20100;-70
2022/01/31 09:51:24;;;;;;;47.83;24.52;;;205.60;1945.60;;;;;;5033072;28;20028;-70
2022/01/31 09:53:59;;;;;;;22.92;9.35;;;205.50;1920.00;;;;;;5031574;28;20704;-70
2022/01/31 09:56:32;;;;;;;31.70;9.98;;;205.30;1868.80;;;;;;5047985;28;20942;-71
2022/01/31 09:58:59;;;;;;;28.30;12.65;;;205.30;1868.80;;;;;;5050175;28;20084;-70
2022/01/31 10:01:29;;;;;;;23.65;11.85;;;205.50;1868.80;;;;;;5051394;28;20024;-70
2022/01/31 10:03:59;;;;;;;79.22;33.97;;;205.50;1843.20;;;;;;5051393;28;20033;-71
2022/01/31 10:06:28;;;;;;;55.72;27.25;;;205.60;1766.40;;;;;;5053169;28;20095;-70
2022/01/31 10:09:08;;;;;;;65.03;27.30;;;205.50;1817.60;;;;;;5030257;28;20103;-71
2022/01/31 10:11:43;;;;;;;37.17;14.73;;;205.40;1792.00;;;;;;5044335;28;20037;-74
2022/01/31 10:17:30;;;;;;;59.85;30.73;;;205.70;1817.60;;;;;;4955933;28;20079;-72
2022/01/31 10:19:59;;;;;;;25.80;12.02;;;230.40;1817.60;;;;;;4937937;29;20031;-71
2022/01/31 10:22:28;;;;;;;34.85;16.13;;;230.60;1715.20;;;;;;4936082;29;20047;-72
2022/01/31 10:24:56;;;;;;;38.80;15.52;;;230.60;1689.60;;;;;;4932355;29;20027;-72
2022/01/31 10:27:28;;;;;;;35.90;17.63;;;230.70;1740.80;;;;;;4954530;28;20035;-71
2022/01/31 10:30:15;;;;;;;42.95;16.42;;;230.40;1740.80;;;;;;4944157;28;20023;-71
2022/01/31 10:32:47;;;;;;;41.60;19.10;;;230.70;1740.80;;;;;;4951134;28;20039;-71
2022/01/31 10:35:15;;;;;;;22.13;10.30;;;230.90;1740.80;;;;;;4953657;28;20039;-72
2022/01/31 10:37:42;;;;;;;24.30;11.60;;;230.80;1689.60;;;;;;4934692;29;20035;-72
2022/01/31 10:46:06;;;;;;;22.13;9.05;;;231.00;1664.00;;;;;;4949878;28;20507;-73
2022/01/31 10:54:26;;;;;;;15.98;8.02;;;231.00;1664.00;;;;;;5012708;28;20037;-73
2022/01/31 10:56:46;;;;;;;18.98;9.25;;;231.10;1638.40;;;;;;5046773;28;20060;-72
2022/01/31 10:59:15;;;;;;;17.25;6.47;;;231.00;1664.00;;;;;;5048803;28;20025;-72
2022/01/31 11:01:43;;;;;;;26.27;6.20;;;230.90;1638.40;;;;;;5048040;28;20138;-72
2022/01/31 11:04:11;;;;;;;31.33;11.02;;;231.20;1638.40;;;;;;5027069;28;20416;-73
2022/01/31 11:06:40;;;;;;;22.00;7.53;;;231.30;1638.40;;;;;;5023193;28;20124;-72
2022/01/31 11:09:10;;;;;;;30.02;10.52;;;231.30;1612.80;;;;;;5044891;28;20021;-72
2022/01/31 11:11:44;;;;;;;22.58;9.02;;;256.00;1612.80;;;;;;5024562;28;20037;-72
2022/01/31 11:14:11;;;;;;;18.85;9.63;;;256.30;1587.20;;;;;;5045165;28;20025;-74
2022/01/31 11:16:43;;;;;;;14.20;5.85;;;256.70;1536.00;;;;;;5031175;28;20090;-72
2022/01/31 11:19:11;;;;;;;13.40;7.20;;;256.30;1510.40;;;;;;5042050;28;20064;-73
2022/01/31 11:21:47;;;;;;;19.38;6.65;;;256.00;1536.00;;;;;;5045280;28;20053;-73
2022/01/31 11:24:20;;;;;;;16.70;6.95;;;231.20;1587.20;;;;;;5030840;28;20077;-72
2022/01/31 11:26:54;;;;;;;14.93;8.43;;;256.20;1587.20;;;;;;5029417;28;20024;-72
2022/01/31 11:29:20;;;;;;;10.77;5.38;;;256.60;1536.00;;;;;;5040584;28;20029;-73
2022/01/31 11:31:47;;;;;;;16.27;9.32;;;256.70;1510.40;;;;;;5043369;28;20548;-71
2022/01/31 11:34:13;;;;;;;16.48;8.10;;;281.70;1536.00;;;;;;5031441;28;20039;-72
2022/01/31 11:36:41;;;;;;;14.15;6.90;;;282.00;1536.00;;;;;;5041391;28;20493;-72
2022/01/31 11:39:16;;;;;;;14.88;6.25;;;282.10;1510.40;;;;;;5026659;28;20140;-72
2022/01/31 11:41:50;;;;;;;18.63;6.38;;;282.00;1459.20;;;;;;5046232;28;20025;-72
2022/01/31 11:44:49;;;;;;;8.73;4.15;;;256.70;1484.80;;;;;;5024646;28;20039;-72
2022/01/31 11:47:21;;;;;;;16.30;5.15;;;256.50;1484.80;;;;;;4973172;28;20046;-71
2022/01/31 11:49:59;;;;;;;15.18;6.63;;;231.20;1536.00;;;;;;4970059;28;20110;-72
2022/01/31 11:52:30;;;;;;;19.35;7.60;;;256.00;1561.60;;;;;;4969491;28;20403;-72
2022/01/31 11:54:58;;;;;;;14.75;6.05;;;256.40;1561.60;;;;;;4971304;28;20121;-73
2022/01/31 11:57:33;;;;;;;15.30;5.32;;;256.50;1536.00;;;;;;4969656;28;20023;-72
2022/01/31 12:00:10;;;;;;;12.43;4.35;;;256.50;1510.40;;;;;;4962125;28;20121;-72
2022/01/31 12:02:51;;;;;;;12.55;4.07;;;256.60;1484.80;;;;;;4953863;28;20054;-72
2022/01/31 12:05:36;;;;;;;20.13;6.72;;;256.60;1459.20;;;;;;4970963;28;20485;-72
2022/01/31 12:08:13;;;;;;;23.35;6.50;;;281.60;1484.80;;;;;;4967966;28;20738;-72
2022/01/31 12:10:43;;;;;;;19.98;6.43;;;281.70;1536.00;;;;;;4951807;28;20027;-72
2022/01/31 12:13:42;;;;;;;10.05;6.47;;;281.70;1536.00;;;;;;4969423;28;20166;-72
2022/01/31 12:19:45;;;;;;;28.95;13.23;;;256.80;1561.60;;;;;;4973254;28;20520;-72
2022/01/31 12:22:38;;;;;;;25.52;12.65;;;256.80;1587.20;;;;;;4969803;28;20031;-72
2022/01/31 12:25:30;;;;;;;26.27;11.20;;;256.70;1561.60;;;;;;4996049;28;20109;-72
2022/01/31 12:27:57;;;;;;;23.45;8.40;;;256.50;1561.60;;;;;;5050514;28;20029;-72
2022/01/31 12:30:31;;;;;;;15.65;7.95;;;256.30;1561.60;;;;;;5050896;28;20463;-72
2022/01/31 12:32:57;;;;;;;22.25;9.25;;;256.00;1638.40;;;;;;5050593;28;20108;-73
2022/01/31 12:35:36;;;;;;;21.52;9.32;;;256.00;1664.00;;;;;;5050657;28;20028;-73
2022/01/31 12:38:04;;;;;;;28.05;10.23;;;256.00;1664.00;;;;;;5051734;28;20031;-72
2022/01/31 12:40:39;;;;;;;18.77;10.13;;;256.00;1638.40;;;;;;5028443;28;20025;-72